Time;durP1;ratioP1;P1;durP2;ratioP2;P2;SDS_P1;SDS_P2;PMS_P1;PMS_P2;Temp;Humidity;BMP_temperature;BMP_pressure;BME280_temperature;BME280_humidity;BME280_pressure;Samples;Min_cycle;Max_cycle;Signal;HPM_P1;HPM_P2
2022/12/15 00:39:57;;;;;;;36.00;17.60;;;-4.40;65.50;;;;;;5050706;28;20033;-76
2022/12/15 00:42:27;;;;;;;33.55;18.98;;;-4.40;67.10;;;;;;5058290;28;20033;-76
2022/12/15 00:44:55;;;;;;;34.47;15.73;;;-4.40;68.30;;;;;;5053108;28;20470;-76
2022/12/15 00:47:22;;;;;;;33.80;16.88;;;-4.40;67.80;;;;;;5052744;28;20036;-76
2022/12/15 01:20:18;;;;;;;37.42;18.02;;;-4.50;60.00;;;;;;5051344;28;20044;-77
2022/12/15 01:22:51;;;;;;;37.42;18.48;;;-4.60;61.40;;;;;;5050067;28;20025;-76
2022/12/15 01:25:19;;;;;;;35.55;16.50;;;-4.50;63.60;;;;;;5050984;28;20033;-77
2022/12/15 01:27:46;;;;;;;35.35;18.98;;;-4.50;65.50;;;;;;5058014;28;20037;-76
2022/12/15 01:30:14;;;;;;;36.30;19.90;;;-4.50;64.20;;;;;;5054900;28;20037;-77
2022/12/15 01:32:40;;;;;;;31.65;17.35;;;-4.50;62.20;;;;;;5052186;28;20029;-76
2022/12/15 01:35:07;;;;;;;38.33;16.88;;;-4.50;62.40;;;;;;5053276;28;20033;-76
2022/12/15 01:37:34;;;;;;;43.03;21.60;;;-4.50;60.90;;;;;;5055812;28;20385;-77
2022/12/15 01:42:45;;;;;;;30.20;15.85;;;-4.60;56.80;;;;;;5034916;28;20029;-76
2022/12/15 01:45:29;;;;;;;32.10;15.57;;;-4.60;54.30;;;;;;5053961;28;20037;-76
2022/12/15 01:48:05;;;;;;;28.33;14.65;;;-4.60;53.40;;;;;;5054485;28;20052;-76
2022/12/15 01:50:54;;;;;;;36.55;16.30;;;-4.60;53.30;;;;;;5059995;28;20466;-76
2022/12/15 01:53:21;;;;;;;35.88;17.23;;;-4.60;53.40;;;;;;5031459;28;20052;-76
2022/12/15 01:55:47;;;;;;;37.92;16.48;;;-4.60;53.40;;;;;;5053996;28;20040;-76
2022/12/15 01:58:15;;;;;;;34.45;17.00;;;-4.70;53.10;;;;;;5054622;28;20037;-76
2022/12/15 02:00:42;;;;;;;39.83;16.73;;;-4.60;53.50;;;;;;5048330;28;20037;-75
2022/12/15 02:03:09;;;;;;;31.70;15.57;;;-4.70;53.90;;;;;;5053232;28;20374;-76
2022/12/15 02:05:36;;;;;;;28.77;16.67;;;-4.60;54.70;;;;;;5054691;28;20032;-77
2022/12/15 02:08:03;;;;;;;29.67;14.75;;;-4.60;55.50;;;;;;5053672;28;20053;-76
2022/12/15 02:10:52;;;;;;;32.67;15.90;;;-4.60;55.90;;;;;;5054844;28;20040;-76
2022/12/15 02:13:32;;;;;;;28.77;16.17;;;-4.50;56.30;;;;;;5053326;28;20033;-76
2022/12/15 02:16:32;;;;;;;27.05;15.63;;;-4.60;55.60;;;;;;5054123;28;20024;-76
2022/12/15 02:19:17;;;;;;;31.45;16.00;;;-4.50;55.40;;;;;;4969674;28;20394;-76
2022/12/15 02:22:04;;;;;;;25.65;13.82;;;-4.40;56.40;;;;;;5054189;28;20050;-75
2022/12/15 02:24:52;;;;;;;32.45;15.85;;;-4.50;56.60;;;;;;5053103;28;20036;-77
2022/12/15 02:27:42;;;;;;;26.35;14.82;;;-4.50;56.20;;;;;;5054301;28;20044;-77
2022/12/15 02:30:31;;;;;;;35.92;18.02;;;-4.50;56.80;;;;;;5053695;28;20025;-76
2022/12/15 02:33:06;;;;;;;31.45;14.90;;;-4.40;57.90;;;;;;5052770;28;20041;-76
2022/12/15 02:35:41;;;;;;;29.50;15.63;;;-4.40;58.00;;;;;;5055003;28;20032;-76
2022/12/15 02:38:08;;;;;;;28.02;15.45;;;-4.40;57.30;;;;;;5053436;28;20052;-78
2022/12/15 02:40:35;;;;;;;31.42;15.68;;;-4.40;56.90;;;;;;5036262;28;20033;-76
2022/12/15 02:43:04;;;;;;;35.60;17.13;;;-4.40;56.70;;;;;;5052547;28;20033;-76
2022/12/15 02:45:56;;;;;;;27.92;14.65;;;-4.40;56.10;;;;;;5054614;28;20036;-76
2022/12/15 02:48:36;;;;;;;28.50;14.60;;;-4.50;55.20;;;;;;5053831;28;20036;-76
2022/12/15 02:51:23;;;;;;;33.33;15.75;;;-4.50;55.80;;;;;;5058569;28;20029;-77
2022/12/15 02:54:04;;;;;;;34.22;16.67;;;-4.50;56.80;;;;;;5058598;28;20036;-76
2022/12/15 02:56:58;;;;;;;28.43;15.30;;;-4.40;57.00;;;;;;5056260;28;20339;-76
2022/12/15 02:59:54;;;;;;;37.28;17.85;;;-4.50;54.50;;;;;;5054358;28;20279;-76
2022/12/15 03:02:24;;;;;;;28.58;15.55;;;-4.60;53.60;;;;;;5053771;28;20044;-76
2022/12/15 03:04:50;;;;;;;29.88;14.40;;;-4.80;53.80;;;;;;5051509;28;20037;-76
2022/12/15 03:07:17;;;;;;;35.97;16.70;;;-4.70;55.20;;;;;;5053256;28;20029;-76
2022/12/15 03:09:43;;;;;;;36.28;16.38;;;-4.70;58.80;;;;;;5053308;28;20045;-76
2022/12/15 03:12:09;;;;;;;33.97;15.13;;;-4.80;59.60;;;;;;5053473;28;20033;-77
2022/12/15 03:14:35;;;;;;;34.15;17.23;;;-4.90;58.80;;;;;;5052198;28;20033;-77
2022/12/15 03:17:03;;;;;;;32.30;16.50;;;-4.90;59.20;;;;;;5052699;28;20029;-76
2022/12/15 03:19:29;;;;;;;29.85;15.82;;;-5.00;59.00;;;;;;5052985;28;20412;-76
2022/12/15 03:21:56;;;;;;;29.35;16.15;;;-5.00;58.90;;;;;;5052852;28;20040;-76
2022/12/15 03:24:22;;;;;;;29.27;15.68;;;-5.00;58.80;;;;;;5051489;28;20036;-79
2022/12/15 03:26:49;;;;;;;28.40;14.82;;;-5.10;58.50;;;;;;5052470;28;20466;-76
2022/12/15 03:29:18;;;;;;;34.83;16.00;;;-5.10;59.40;;;;;;5053208;28;20028;-76
2022/12/15 03:31:44;;;;;;;26.85;15.52;;;-5.20;59.00;;;;;;5052833;28;20036;-79
2022/12/15 03:34:11;;;;;;;27.55;14.05;;;-5.20;59.00;;;;;;5051703;28;20037;-76
2022/12/15 03:36:37;;;;;;;34.10;15.95;;;-5.30;60.20;;;;;;5052684;28;20043;-76
2022/12/15 03:39:04;;;;;;;33.63;16.42;;;-5.30;62.50;;;;;;5051963;28;20040;-79
2022/12/15 03:41:30;;;;;;;28.60;15.55;;;-5.30;64.10;;;;;;5052924;28;20031;-78
2022/12/15 03:43:56;;;;;;;32.45;14.68;;;-5.30;65.10;;;;;;5050638;28;20025;-79
2022/12/15 03:46:22;;;;;;;36.83;17.67;;;-5.40;64.70;;;;;;5060416;28;20036;-78
2022/12/15 03:48:49;;;;;;;32.65;15.25;;;-5.40;64.90;;;;;;5057389;28;20037;-79
2022/12/15 03:51:15;;;;;;;28.80;16.27;;;-5.50;63.80;;;;;;5056464;28;20382;-79
2022/12/15 03:53:42;;;;;;;33.83;15.25;;;-5.50;63.70;;;;;;5052020;28;20029;-78
2022/12/15 03:56:08;;;;;;;30.10;15.30;;;-5.60;61.60;;;;;;5053014;28;20392;-79
2022/12/15 03:58:34;;;;;;;33.70;16.15;;;-5.60;61.10;;;;;;5057082;28;20045;-78
2022/12/15 04:01:26;;;;;;;27.63;14.80;;;-5.60;61.10;;;;;;5051776;28;20041;-78
2022/12/15 04:03:52;;;;;;;33.28;17.20;;;-5.70;59.30;;;;;;5050798;28;20044;-78
2022/12/15 04:06:18;;;;;;;32.45;15.75;;;-5.80;60.30;;;;;;5052638;28;20033;-78
2022/12/15 04:08:44;;;;;;;36.17;16.88;;;-5.80;59.80;;;;;;5051618;28;20041;-77
2022/12/15 04:11:11;;;;;;;34.00;16.13;;;-5.90;58.80;;;;;;5052872;28;20183;-78
2022/12/15 04:13:38;;;;;;;30.38;16.10;;;-5.90;59.30;;;;;;5050854;28;20041;-78
2022/12/15 04:16:04;;;;;;;35.55;17.85;;;-6.00;59.20;;;;;;5051898;28;20029;-78
2022/12/15 04:18:30;;;;;;;42.72;17.65;;;-6.00;59.20;;;;;;5052167;28;20370;-78
2022/12/15 04:20:56;;;;;;;31.23;16.50;;;-6.00;59.50;;;;;;5051683;28;20029;-78
2022/12/15 04:23:23;;;;;;;33.90;16.10;;;-6.10;56.60;;;;;;5050666;28;20040;-78
2022/12/15 05:32:22;;;;;;;29.30;15.40;;;-5.50;44.90;;;;;;5054756;28;20095;-78
2022/12/15 05:34:48;;;;;;;39.65;15.65;;;-5.60;45.40;;;;;;5036652;28;20029;-78
2022/12/15 05:37:15;;;;;;;32.58;15.88;;;-5.60;44.50;;;;;;5055045;28;20040;-78
2022/12/15 05:39:41;;;;;;;32.38;16.80;;;-5.70;43.70;;;;;;5055751;28;20447;-78
2022/12/15 05:42:07;;;;;;;33.55;16.67;;;-5.70;44.10;;;;;;5047901;28;20029;-78
2022/12/15 05:44:33;;;;;;;35.70;16.27;;;-5.80;43.80;;;;;;5053741;28;20044;-78
2022/12/15 05:46:59;;;;;;;34.50;16.88;;;-5.80;44.00;;;;;;5054512;28;20029;-78
2022/12/15 05:49:25;;;;;;;27.25;14.50;;;-5.90;46.30;;;;;;5054469;28;20029;-78
2022/12/15 05:51:51;;;;;;;28.90;15.63;;;-6.00;46.60;;;;;;5054003;28;20484;-78
2022/12/15 05:54:22;;;;;;;29.48;16.23;;;-6.10;45.50;;;;;;5052914;28;20029;-78
2022/12/15 05:56:48;;;;;;;28.85;14.15;;;-6.10;45.60;;;;;;5054351;28;20081;-78
2022/12/15 05:59:14;;;;;;;31.02;15.30;;;-6.20;46.70;;;;;;5053002;28;20044;-78
2022/12/15 06:01:41;;;;;;;40.00;17.50;;;-6.30;48.30;;;;;;5036613;28;20051;-78
2022/12/15 06:04:11;;;;;;;32.17;16.10;;;-6.30;48.30;;;;;;5052370;28;20462;-78
2022/12/15 06:06:37;;;;;;;35.00;17.45;;;-6.40;48.00;;;;;;5041129;28;20049;-79
2022/12/15 06:09:04;;;;;;;33.00;16.80;;;-6.40;48.70;;;;;;5051614;28;20045;-78
2022/12/15 06:11:30;;;;;;;41.60;17.88;;;-6.50;48.40;;;;;;5054318;28;20036;-78
2022/12/15 06:13:57;;;;;;;38.30;17.52;;;-6.60;47.30;;;;;;5033931;28;20498;-78
2022/12/15 06:16:24;;;;;;;37.20;19.45;;;-6.70;46.30;;;;;;5036805;28;20044;-78
2022/12/15 06:18:57;;;;;;;33.03;15.70;;;-6.80;45.10;;;;;;5036395;28;20057;-78
2022/12/15 06:21:26;;;;;;;31.63;16.95;;;-6.80;45.70;;;;;;5053959;28;20474;-78
2022/12/15 06:23:54;;;;;;;42.13;18.13;;;-6.80;48.40;;;;;;5051062;28;20045;-77
2022/12/15 06:26:31;;;;;;;34.80;17.60;;;-6.80;49.00;;;;;;5051555;28;20496;-77
2022/12/15 06:29:01;;;;;;;35.72;16.67;;;-6.80;52.00;;;;;;5036285;28;20040;-78
2022/12/15 06:31:28;;;;;;;35.13;17.33;;;-6.80;52.80;;;;;;5054327;28;20033;-77
2022/12/15 06:33:55;;;;;;;33.00;17.10;;;-6.70;57.20;;;;;;5051969;28;20033;-77
2022/12/15 06:36:24;;;;;;;37.38;15.98;;;-6.80;57.70;;;;;;5054230;28;20036;-78
2022/12/15 06:38:51;;;;;;;33.30;15.95;;;-6.90;54.80;;;;;;5053581;28;20048;-78
2022/12/15 06:41:19;;;;;;;37.22;17.50;;;-7.00;52.10;;;;;;5054210;28;20481;-79
2022/12/15 06:43:50;;;;;;;27.65;15.18;;;-6.90;53.60;;;;;;5034219;28;20048;-77
2022/12/15 06:46:17;;;;;;;29.25;16.23;;;-6.90;53.10;;;;;;5053022;28;20029;-77
2022/12/15 06:48:44;;;;;;;31.80;15.77;;;-7.00;51.30;;;;;;5052807;28;20036;-78
2022/12/15 06:51:12;;;;;;;38.60;17.27;;;-7.10;49.60;;;;;;5053631;28;20029;-78
2022/12/15 06:53:40;;;;;;;32.10;17.58;;;-7.10;49.20;;;;;;5053203;28;20040;-78
2022/12/15 06:56:12;;;;;;;38.10;17.48;;;-7.10;50.90;;;;;;5066565;28;20033;-78
2022/12/15 06:58:38;;;;;;;36.60;17.63;;;-7.10;51.50;;;;;;5071539;28;20025;-77
2022/12/15 07:01:06;;;;;;;31.77;15.95;;;-7.10;51.80;;;;;;5069133;28;20033;-77
2022/12/15 07:03:33;;;;;;;36.00;19.27;;;-7.10;53.00;;;;;;5053916;28;20037;-78
2022/12/15 07:06:05;;;;;;;33.70;17.30;;;-7.10;52.70;;;;;;5055961;28;20037;-75
2022/12/15 07:08:31;;;;;;;;;;;-7.10;51.10;;;;;;5054482;28;20053;-75
2022/12/15 07:10:57;;;;;;;31.52;14.95;;;-7.20;51.10;;;;;;5052790;28;19915;-74
2022/12/15 07:13:24;;;;;;;39.63;16.83;;;-7.20;49.40;;;;;;5051980;28;20386;-74
2022/12/15 07:15:51;;;;;;;31.77;15.23;;;-7.30;47.40;;;;;;5035653;28;20029;-78
2022/12/15 07:18:17;;;;;;;37.65;18.25;;;-7.30;45.70;;;;;;5052627;28;20064;-78
2022/12/15 07:20:43;;;;;;;38.90;16.73;;;-7.40;42.90;;;;;;5034748;28;20048;-78
2022/12/15 07:23:10;;;;;;;42.10;19.48;;;-7.50;39.90;;;;;;5048085;28;20041;-79
2022/12/15 07:25:37;;;;;;;30.40;17.00;;;-7.60;37.50;;;;;;5051691;28;20466;-78
2022/12/15 07:28:04;;;;;;;31.08;16.00;;;-7.60;36.40;;;;;;5052515;28;20029;-78
2022/12/15 07:30:31;;;;;;;40.08;20.27;;;-7.50;37.10;;;;;;5035125;28;20490;-77
2022/12/15 07:32:57;;;;;;;36.58;18.33;;;-7.50;38.20;;;;;;5049930;28;20025;-77
2022/12/15 07:35:24;;;;;;;39.67;17.55;;;-7.50;37.80;;;;;;5053115;28;20037;-77
2022/12/15 07:37:50;;;;;;;39.40;21.75;;;-7.50;40.30;;;;;;5052803;28;20041;-78
2022/12/15 07:40:16;;;;;;;37.72;17.27;;;-7.50;42.10;;;;;;5051268;28;20048;-78
2022/12/15 07:42:42;;;;;;;37.60;19.25;;;-7.40;43.60;;;;;;5050414;28;20075;-77
2022/12/15 07:45:09;;;;;;;44.97;20.45;;;-7.30;45.70;;;;;;5051909;28;20037;-78
2022/12/15 07:47:36;;;;;;;38.28;20.13;;;-7.30;48.20;;;;;;5052415;28;20466;-78
2022/12/15 07:50:03;;;;;;;43.17;22.83;;;-7.20;51.60;;;;;;5052332;28;20037;-78
2022/12/15 07:52:29;;;;;;;41.50;19.23;;;-7.20;54.40;;;;;;5051232;28;20028;-78
2022/12/15 07:54:56;;;;;;;51.03;22.50;;;-7.10;56.80;;;;;;5052255;28;20041;-78
2022/12/15 07:57:22;;;;;;;37.97;20.60;;;-7.10;59.70;;;;;;5052543;28;20382;-78
2022/12/15 07:59:49;;;;;;;39.33;18.95;;;-7.10;62.90;;;;;;5052572;28;20386;-78
2022/12/15 08:02:16;;;;;;;47.47;20.95;;;-7.10;67.30;;;;;;5050697;28;20036;-78
2022/12/15 08:04:43;;;;;;;48.20;22.60;;;-7.00;71.60;;;;;;5034160;28;20048;-78
2022/12/15 08:07:09;;;;;;;38.15;20.00;;;-7.00;73.60;;;;;;5051395;28;20044;-78
2022/12/15 08:09:36;;;;;;;44.08;23.27;;;-6.90;74.70;;;;;;5052553;28;20053;-78
2022/12/15 08:12:02;;;;;;;43.13;23.50;;;-6.90;74.80;;;;;;5050469;28;20038;-78
2022/12/15 08:14:29;;;;;;;42.65;21.58;;;-6.80;73.40;;;;;;5050621;28;20047;-78
2022/12/15 08:16:55;;;;;;;53.10;21.95;;;-6.70;72.60;;;;;;5052263;28;20029;-78
2022/12/15 08:19:21;;;;;;;44.08;20.90;;;-6.70;68.10;;;;;;5051194;28;20036;-78
2022/12/15 08:21:47;;;;;;;44.72;19.98;;;-6.70;63.40;;;;;;5033790;28;20041;-79
2022/12/15 08:24:14;;;;;;;50.42;22.65;;;-6.70;59.50;;;;;;5049852;28;20037;-78
2022/12/15 08:26:42;;;;;;;48.78;23.08;;;-6.60;58.00;;;;;;5052247;28;20036;-78
2022/12/15 08:29:11;;;;;;;49.78;21.00;;;-6.40;56.90;;;;;;5051356;28;20033;-78
2022/12/15 08:31:39;;;;;;;49.53;24.63;;;-6.40;52.30;;;;;;5051958;28;20032;-78
2022/12/15 08:34:05;;;;;;;41.22;20.02;;;-6.50;45.40;;;;;;5050243;28;20032;-78
2022/12/15 08:36:31;;;;;;;34.15;19.27;;;-6.50;40.10;;;;;;5051904;28;20033;-78
2022/12/15 08:38:59;;;;;;;45.40;19.40;;;-6.50;35.90;;;;;;5051639;28;20386;-79
2022/12/15 08:41:31;;;;;;;37.90;20.23;;;-6.40;35.10;;;;;;5045091;28;20037;-78
2022/12/15 08:43:59;;;;;;;123.45;44.38;;;-6.20;35.20;;;;;;5044428;28;20025;-78
2022/12/15 08:46:32;;;;;;;50.10;22.75;;;-5.90;36.80;;;;;;5034166;28;20025;-79
2022/12/15 08:49:00;;;;;;;47.78;23.38;;;-5.80;37.60;;;;;;5045722;28;20033;-76
2022/12/15 08:51:28;;;;;;;38.10;20.35;;;-5.60;39.90;;;;;;5051520;28;20029;-78
2022/12/15 08:53:56;;;;;;;43.50;20.40;;;-5.60;41.80;;;;;;5049493;28;20036;-78
2022/12/15 08:56:24;;;;;;;44.08;22.77;;;-5.50;43.40;;;;;;5050780;28;20041;-78
2022/12/15 08:58:55;;;;;;;45.92;23.30;;;-5.40;43.70;;;;;;5048419;28;20033;-78
2022/12/15 09:01:23;;;;;;;41.50;21.75;;;-5.40;45.00;;;;;;5050778;28;20033;-78
2022/12/15 09:03:50;;;;;;;40.53;22.33;;;-5.40;45.60;;;;;;5050382;28;20037;-79
2022/12/15 09:06:23;;;;;;;40.13;23.42;;;-5.30;45.60;;;;;;5051039;28;20040;-78
2022/12/15 09:08:49;;;;;;;50.80;22.65;;;-5.30;45.20;;;;;;5051802;28;20052;-78
2022/12/15 09:11:15;;;;;;;43.88;20.90;;;-5.10;45.70;;;;;;5050695;28;20044;-78
2022/12/15 09:13:41;;;;;;;39.40;21.77;;;-4.90;45.00;;;;;;5050308;28;20032;-78
2022/12/15 09:16:12;;;;;;;44.30;20.52;;;-4.70;41.80;;;;;;5044313;28;20029;-78
2022/12/15 09:18:41;;;;;;;40.35;20.40;;;-4.40;38.30;;;;;;5051094;28;20044;-78
2022/12/15 09:21:10;;;;;;;36.67;20.00;;;-4.30;30.80;;;;;;5044293;28;20033;-77
2022/12/15 09:23:36;;;;;;;41.75;21.98;;;-4.20;23.10;;;;;;5049756;28;20033;-78
2022/12/15 09:26:11;;;;;;;37.38;20.75;;;-4.00;19.10;;;;;;5050554;28;20033;-78
2022/12/15 09:28:39;;;;;;;40.92;20.17;;;-3.90;13.50;;;;;;5049869;28;20482;-78
2022/12/15 09:31:29;;;;;;;33.47;19.42;;;-3.80;9.30;;;;;;5050796;28;20382;-78
2022/12/15 09:33:57;;;;;;;40.53;19.85;;;-3.70;2.80;;;;;;5054009;28;20033;-78
2022/12/15 09:36:24;;;;;;;32.95;17.92;;;-3.80;1.00;;;;;;5050207;28;20029;-79
2022/12/15 09:38:50;;;;;;;33.70;19.52;;;-3.70;1.10;;;;;;5050439;28;20037;-78
2022/12/15 09:41:22;;;;;;;34.78;19.40;;;-3.70;1.00;;;;;;5050316;28;20509;-78
2022/12/15 09:44:15;;;;;;;31.00;17.40;;;-3.70;1.00;;;;;;5049441;28;20104;-78
2022/12/15 09:46:55;;;;;;;36.28;19.00;;;-3.60;1.00;;;;;;5050913;28;20087;-78
2022/12/15 09:49:51;;;;;;;37.08;20.33;;;-3.60;1.00;;;;;;5045748;28;20025;-78
2022/12/15 09:52:27;;;;;;;31.08;18.73;;;-3.50;1.00;;;;;;5050373;28;20025;-78
2022/12/15 09:54:55;;;;;;;34.65;18.50;;;-3.40;1.00;;;;;;5052350;28;20367;-78
2022/12/15 09:57:45;;;;;;;35.15;18.95;;;-3.30;1.00;;;;;;5054198;28;20037;-78
2022/12/15 10:00:20;;;;;;;31.20;17.92;;;-3.10;1.00;;;;;;5056170;28;20044;-78
2022/12/15 10:02:58;;;;;;;32.20;19.25;;;-3.20;1.00;;;;;;5069584;28;20025;-78
2022/12/15 10:05:42;;;;;;;34.35;19.13;;;-3.20;1.00;;;;;;5067537;28;20048;-78
2022/12/15 10:08:09;;;;;;;35.33;19.70;;;-3.20;1.00;;;;;;5056588;28;20060;-77
2022/12/15 10:10:47;;;;;;;31.38;18.23;;;-3.30;1.00;;;;;;5055564;28;20040;-78
2022/12/15 10:13:22;;;;;;;34.35;17.13;;;-3.20;1.00;;;;;;5046864;28;20051;-78
2022/12/15 10:15:58;;;;;;;32.90;16.92;;;-3.00;1.00;;;;;;5054854;28;20033;-78
2022/12/15 10:18:40;;;;;;;30.73;18.08;;;-3.00;1.00;;;;;;5053956;28;20045;-78
2022/12/15 10:21:13;;;;;;;34.70;19.10;;;-3.30;1.00;;;;;;5036203;28;20041;-77
2022/12/15 10:23:39;;;;;;;33.25;17.38;;;-3.40;1.00;;;;;;5053247;28;20044;-78
2022/12/15 10:26:25;;;;;;;31.58;17.67;;;-3.40;1.00;;;;;;5053216;28;20045;-77
2022/12/15 10:29:15;;;;;;;30.73;18.58;;;-3.30;1.00;;;;;;5054399;28;20096;-77
2022/12/15 10:31:54;;;;;;;32.60;18.08;;;-3.30;1.00;;;;;;5054361;28;20493;-75
2022/12/15 10:34:25;;;;;;;38.45;18.30;;;-3.30;1.00;;;;;;5052959;28;20565;-76
2022/12/15 10:36:53;;;;;;;37.85;19.75;;;-3.10;1.00;;;;;;5054381;28;20493;-75
2022/12/15 10:39:20;;;;;;;30.27;18.60;;;-3.00;1.00;;;;;;5053261;28;20045;-75
2022/12/15 10:42:20;;;;;;;36.90;20.17;;;-2.90;1.00;;;;;;5053547;28;20032;-77
2022/12/15 10:44:51;;;;;;;38.17;20.42;;;-2.90;1.00;;;;;;5054015;28;20029;-76
2022/12/15 10:47:19;;;;;;;37.33;19.73;;;-2.90;1.00;;;;;;5050722;28;20497;-77
2022/12/15 10:49:45;;;;;;;34.90;19.38;;;-2.90;1.00;;;;;;5052074;28;20044;-77
2022/12/15 10:52:34;;;;;;;33.33;19.05;;;-2.90;1.00;;;;;;5050102;28;20045;-77
2022/12/15 10:55:01;;;;;;;38.30;19.58;;;-2.90;1.00;;;;;;5052032;28;20029;-78
2022/12/15 10:57:30;;;;;;;36.88;20.55;;;-2.90;1.00;;;;;;5058908;28;20021;-77
2022/12/15 11:00:21;;;;;;;39.13;20.98;;;-2.90;1.00;;;;;;5070592;28;20040;-78
2022/12/15 11:02:47;;;;;;;38.75;20.55;;;-3.00;1.00;;;;;;5056254;28;20033;-78
2022/12/15 11:05:15;;;;;;;39.15;18.90;;;-3.00;1.00;;;;;;5066070;28;20029;-77
2022/12/15 11:07:48;;;;;;;43.22;20.70;;;-3.00;1.00;;;;;;5052643;28;20413;-77
2022/12/15 11:10:23;;;;;;;41.15;21.08;;;-3.00;1.00;;;;;;5053367;28;20040;-76
2022/12/15 11:12:58;;;;;;;47.33;21.20;;;-3.00;1.00;;;;;;5052301;28;20036;-78
2022/12/15 11:15:35;;;;;;;42.50;22.65;;;-3.00;1.00;;;;;;5053009;28;20497;-78
2022/12/15 11:18:12;;;;;;;39.80;21.27;;;-3.10;1.00;;;;;;5053198;28;20052;-77
2022/12/15 11:20:48;;;;;;;50.35;23.05;;;-3.10;1.00;;;;;;5053858;28;20025;-77
2022/12/15 11:23:26;;;;;;;49.67;22.50;;;-2.90;1.00;;;;;;5050593;28;20040;-78
2022/12/15 11:26:13;;;;;;;47.53;22.85;;;-2.90;1.00;;;;;;5047677;28;20036;-77
2022/12/15 11:29:06;;;;;;;37.92;21.73;;;-3.10;1.00;;;;;;5033854;28;20048;-78
2022/12/15 11:31:41;;;;;;;49.72;22.55;;;-3.20;1.00;;;;;;5042347;28;20088;-78
2022/12/15 11:34:13;;;;;;;49.50;23.95;;;-3.20;1.00;;;;;;5044942;28;20473;-77
2022/12/15 11:37:09;;;;;;;46.92;23.58;;;-3.10;1.00;;;;;;5044351;28;20025;-78
2022/12/15 11:40:17;;;;;;;43.60;21.95;;;-3.00;1.00;;;;;;5045445;28;20041;-78
2022/12/15 11:42:52;;;;;;;40.95;21.35;;;-3.20;1.00;;;;;;5047585;28;20497;-78
2022/12/15 11:45:29;;;;;;;40.45;21.70;;;-3.20;1.00;;;;;;5051792;28;20033;-77
2022/12/15 11:48:12;;;;;;;45.88;22.63;;;-3.20;1.00;;;;;;5052814;28;20033;-78
2022/12/15 11:50:50;;;;;;;45.38;22.27;;;-3.10;1.00;;;;;;5052716;28;20029;-79
2022/12/15 11:53:41;;;;;;;43.53;22.42;;;-3.10;1.00;;;;;;5050738;28;20025;-78
2022/12/15 11:56:46;;;;;;;51.33;24.48;;;-3.30;1.00;;;;;;5054433;28;20044;-77
2022/12/15 11:59:21;;;;;;;53.78;23.75;;;-3.40;3.10;;;;;;5043126;28;20064;-78
2022/12/15 12:01:57;;;;;;;43.63;23.23;;;-3.30;6.00;;;;;;5051273;28;20040;-77
2022/12/15 12:04:39;;;;;;;49.22;25.20;;;-3.30;6.60;;;;;;5051734;28;20052;-78
2022/12/15 12:07:43;;;;;;;52.05;25.45;;;-3.30;7.40;;;;;;5033476;28;20045;-78
2022/12/15 12:10:30;;;;;;;54.53;26.17;;;-3.40;10.30;;;;;;5048882;28;20053;-76
2022/12/15 12:13:21;;;;;;;49.65;22.42;;;-3.50;12.10;;;;;;5044017;28;20033;-77
2022/12/15 12:16:01;;;;;;;51.15;23.40;;;-3.40;13.90;;;;;;5052310;28;20028;-77
2022/12/15 12:18:52;;;;;;;47.55;24.05;;;-3.30;14.00;;;;;;5045888;28;20048;-78
2022/12/15 12:21:26;;;;;;;50.35;25.95;;;-3.30;10.60;;;;;;5050999;28;20041;-76
2022/12/15 12:24:02;;;;;;;47.63;25.27;;;-3.30;9.60;;;;;;5050777;28;20044;-78
2022/12/15 12:26:39;;;;;;;49.85;23.98;;;-3.40;9.40;;;;;;5033275;28;20037;-77
2022/12/15 12:29:24;;;;;;;58.05;25.00;;;-3.40;12.40;;;;;;5052158;28;20040;-77
2022/12/15 12:31:56;;;;;;;53.95;26.27;;;-3.50;13.30;;;;;;5050646;28;20033;-78
2022/12/15 12:34:33;;;;;;;51.97;23.55;;;-3.50;14.00;;;;;;5051374;28;20041;-76
2022/12/15 12:37:29;;;;;;;53.97;26.00;;;-3.40;14.40;;;;;;5051662;28;20044;-77
2022/12/15 12:40:01;;;;;;;52.53;24.40;;;-3.30;14.70;;;;;;5033366;28;20053;-77
2022/12/15 12:42:36;;;;;;;54.30;24.95;;;-3.30;12.00;;;;;;5049395;28;20229;-77
2022/12/15 12:45:03;;;;;;;53.05;25.70;;;-3.20;11.00;;;;;;5033407;28;20044;-78
2022/12/15 12:47:35;;;;;;;52.88;25.52;;;-3.30;10.10;;;;;;5046926;28;20033;-79
2022/12/15 12:50:06;;;;;;;54.67;26.23;;;-3.20;10.30;;;;;;5047491;28;20044;-79
2022/12/15 12:52:33;;;;;;;;;;;-3.20;8.80;;;;;;5050605;28;20382;-78
2022/12/15 12:55:25;;;;;;;48.88;24.02;;;-3.10;8.20;;;;;;5051369;28;20381;-78
2022/12/15 12:57:52;;;;;;;54.13;25.20;;;-3.20;7.90;;;;;;5038083;28;20037;-78
2022/12/15 13:00:23;;;;;;;48.40;23.45;;;-3.30;9.50;;;;;;5050267;28;20044;-78
2022/12/15 13:03:11;;;;;;;52.67;27.17;;;-3.30;10.40;;;;;;5050178;28;20041;-78
2022/12/15 13:05:39;;;;;;;49.60;23.20;;;-3.30;10.60;;;;;;5053743;28;20044;-78
2022/12/15 13:08:05;;;;;;;56.75;25.52;;;-3.40;12.10;;;;;;5056444;28;20401;-77
2022/12/15 13:10:36;;;;;;;47.00;24.75;;;-3.30;13.80;;;;;;5059204;28;20037;-77
2022/12/15 13:13:17;;;;;;;50.35;25.50;;;-3.30;12.40;;;;;;5054622;28;20036;-77
2022/12/15 13:15:47;;;;;;;51.67;24.40;;;-3.30;12.90;;;;;;5053250;28;20025;-77
2022/12/15 13:18:26;;;;;;;49.60;23.85;;;-3.20;12.20;;;;;;5041406;28;20359;-76
2022/12/15 13:20:56;;;;;;;55.17;25.30;;;-3.20;11.90;;;;;;5051076;28;20048;-78
2022/12/15 13:23:22;;;;;;;48.92;24.55;;;-3.00;11.90;;;;;;5049745;28;20029;-77
2022/12/15 13:25:51;;;;;;;48.97;23.15;;;-3.00;10.30;;;;;;5051398;28;20487;-76
2022/12/15 13:28:39;;;;;;;47.53;23.48;;;-2.90;7.40;;;;;;5050662;28;20033;-77
2022/12/15 13:31:17;;;;;;;55.53;26.15;;;-2.80;4.50;;;;;;5054080;28;20025;-78
2022/12/15 13:33:45;;;;;;;48.20;23.60;;;-2.80;1.70;;;;;;5054235;28;20036;-78
2022/12/15 13:36:11;;;;;;;48.30;24.48;;;-2.80;1.00;;;;;;5054463;28;20029;-77
2022/12/15 13:38:57;;;;;;;50.92;26.30;;;-2.80;1.00;;;;;;5056434;28;20044;-78
2022/12/15 13:41:25;;;;;;;49.22;24.25;;;-2.80;1.00;;;;;;5036095;28;20040;-77
2022/12/15 13:43:53;;;;;;;44.63;23.25;;;-2.70;1.00;;;;;;5047387;28;20033;-77
2022/12/15 13:46:28;;;;;;;56.75;25.67;;;-2.70;1.00;;;;;;5054543;28;20036;-79
2022/12/15 13:49:28;;;;;;;46.22;23.15;;;-2.70;1.00;;;;;;5052502;28;20135;-78
2022/12/15 13:52:16;;;;;;;52.03;25.15;;;-2.70;1.00;;;;;;5053175;28;20033;-78
2022/12/15 13:54:47;;;;;;;44.63;21.45;;;-2.70;1.00;;;;;;5054693;28;20493;-77
2022/12/15 13:57:16;;;;;;;45.08;22.33;;;-2.60;1.00;;;;;;5054315;28;20025;-76
2022/12/15 13:59:46;;;;;;;45.63;22.52;;;-2.60;1.00;;;;;;5051243;28;20044;-77
2022/12/15 14:02:30;;;;;;;43.97;21.98;;;-2.50;1.00;;;;;;5046925;28;20029;-75
2022/12/15 14:05:21;;;;;;;41.20;21.92;;;-2.40;1.00;;;;;;5048144;28;20043;-78
2022/12/15 14:07:54;;;;;;;40.05;21.38;;;-2.50;1.00;;;;;;5054510;28;20076;-77
2022/12/15 14:10:33;;;;;;;41.75;21.17;;;-2.50;1.00;;;;;;5051995;28;20044;-78
2022/12/15 14:13:08;;;;;;;45.40;20.33;;;-2.50;1.00;;;;;;5043832;28;20044;-79
2022/12/15 14:15:34;;;;;;;38.92;22.75;;;-2.60;1.00;;;;;;5052084;28;20033;-78
2022/12/15 14:18:01;;;;;;;42.10;20.67;;;-2.50;1.00;;;;;;5052191;28;20037;-78
2022/12/15 14:20:38;;;;;;;43.60;21.85;;;-2.50;1.00;;;;;;5052588;28;20052;-78
2022/12/15 14:23:39;;;;;;;41.72;22.02;;;-2.60;1.00;;;;;;5048700;28;20029;-76
2022/12/15 14:26:08;;;;;;;44.90;21.73;;;-2.60;1.00;;;;;;5048266;28;20478;-75
2022/12/15 14:28:38;;;;;;;41.92;20.70;;;-2.60;1.00;;;;;;5032716;28;20033;-75
2022/12/15 14:31:11;;;;;;;41.38;21.33;;;-2.60;1.00;;;;;;5054198;28;20029;-76
2022/12/15 14:33:42;;;;;;;46.67;23.63;;;-2.70;1.00;;;;;;5051443;28;20025;-75
2022/12/15 14:36:11;;;;;;;34.30;18.13;;;-2.70;1.00;;;;;;5052181;28;20033;-76
2022/12/15 14:39:00;;;;;;;42.65;19.75;;;-2.70;1.00;;;;;;5052493;28;20041;-76
2022/12/15 14:41:37;;;;;;;39.80;20.63;;;-2.70;1.00;;;;;;5052765;28;20044;-77
2022/12/15 14:44:17;;;;;;;42.20;19.65;;;-2.80;1.00;;;;;;5053617;28;20029;-77
2022/12/15 14:46:46;;;;;;;39.10;19.02;;;-2.80;1.00;;;;;;5054303;28;20029;-76
2022/12/15 14:49:20;;;;;;;43.72;22.25;;;-2.80;1.00;;;;;;5051433;28;20052;-76
2022/12/15 14:51:50;;;;;;;48.70;25.92;;;-2.90;1.00;;;;;;5051962;28;20036;-75
2022/12/15 14:54:35;;;;;;;38.25;20.73;;;-2.90;1.00;;;;;;5053504;28;20470;-75
2022/12/15 14:57:23;;;;;;;43.20;19.33;;;-2.90;1.00;;;;;;5053677;28;20035;-76
2022/12/15 14:59:51;;;;;;;39.17;20.98;;;-2.90;1.00;;;;;;5053327;28;20063;-76
2022/12/15 15:02:25;;;;;;;40.35;21.55;;;-3.00;1.00;;;;;;5051750;28;20032;-75
2022/12/15 15:04:58;;;;;;;41.60;22.48;;;-3.00;1.00;;;;;;5048746;28;20401;-76
2022/12/15 15:07:27;;;;;;;43.92;22.38;;;-3.00;1.00;;;;;;5049047;28;20037;-73
2022/12/15 15:09:54;;;;;;;44.72;20.70;;;-3.10;1.00;;;;;;5053470;28;20473;-74
2022/12/15 15:12:23;;;;;;;52.00;24.15;;;-3.10;1.00;;;;;;5033978;28;20039;-73
2022/12/15 15:15:01;;;;;;;45.22;25.15;;;-3.10;1.00;;;;;;5059748;28;20025;-74
2022/12/15 15:17:42;;;;;;;33.58;16.73;;;-3.10;1.00;;;;;;5054655;28;20051;-74